Time;durP1;ratioP1;P1;durP2;ratioP2;P2;SDS_P1;SDS_P2;PMS_P1;PMS_P2;Temp;Humidity;BMP_temperature;BMP_pressure;BME280_temperature;BME280_humidity;BME280_pressure;Samples;Min_cycle;Max_cycle;Signal;HPM_P1;HPM_P2
2022/11/21 00:01:22;;;;;;;15.83;10.07;;;;;;;;;;4989152;28;20240;-90
2022/11/21 00:03:48;;;;;;;16.63;10.00;;;;;;;;;;5006348;28;20215;-91
2022/11/21 00:06:14;;;;;;;29.53;9.90;;;;;;;;;;5015248;28;20243;-90
2022/11/21 00:08:41;;;;;;;23.03;10.20;;;;;;;;;;5026364;28;20231;-92
2022/11/21 00:11:07;;;;;;;18.20;9.83;;;;;;;;;;5009507;28;20224;-89
2022/11/21 00:13:35;;;;;;;20.53;9.03;;;;;;;;;;5025985;28;20228;-91
2022/11/21 00:16:11;;;;;;;28.50;9.10;;;;;;;;;;5009862;28;20216;-92
2022/11/21 00:18:37;;;;;;;22.73;10.13;;;;;;;;;;5025525;28;20215;-89
2022/11/21 00:21:07;;;;;;;17.13;10.03;;;;;;;;;;5009319;28;20229;-86
2022/11/21 00:23:33;;;;;;;25.33;9.47;;;;;;;;;;5015745;28;20223;-87
2022/11/21 00:26:02;;;;;;;36.47;10.07;;;;;;;;;;4989382;28;20246;-88
2022/11/21 00:28:28;;;;;;;21.27;9.90;;;;;;;;;;4989589;28;20228;-87
2022/11/21 00:30:54;;;;;;;30.57;9.87;;;;;;;;;;5004313;28;20226;-88
2022/11/21 00:33:22;;;;;;;59.07;9.93;;;;;;;;;;4988100;28;20234;-87
2022/11/21 00:35:48;;;;;;;40.60;9.93;;;;;;;;;;4982209;28;20236;-87
2022/11/21 00:38:17;;;;;;;50.33;9.73;;;;;;;;;;5013115;28;20241;-87
2022/11/21 00:40:43;;;;;;;50.33;9.20;;;;;;;;;;4998179;28;20710;-88
2022/11/21 00:43:09;;;;;;;28.30;9.63;;;;;;;;;;5013780;28;20256;-89
2022/11/21 00:45:34;;;;;;;21.93;8.93;;;;;;;;;;4965650;28;20244;-87
2022/11/21 00:48:02;;;;;;;50.27;9.40;;;;;;;;;;4964679;28;20228;-88
2022/11/21 00:50:33;;;;;;;16.87;8.93;;;;;;;;;;4982416;28;20217;-88
2022/11/21 00:53:00;;;;;;;35.93;9.47;;;;;;;;;;4989503;28;20225;-89
2022/11/21 00:55:26;;;;;;;24.50;9.50;;;;;;;;;;4964163;28;20220;-88
2022/11/21 00:57:56;;;;;;;34.17;9.47;;;;;;;;;;4965037;28;20229;-88
2022/11/21 01:00:22;;;;;;;54.87;10.13;;;;;;;;;;4995816;28;20232;-90
2022/11/21 01:02:49;;;;;;;20.17;9.47;;;;;;;;;;4986997;28;20237;-92
2022/11/21 01:05:19;;;;;;;34.93;8.97;;;;;;;;;;4980636;28;20312;-88
2022/11/21 01:07:47;;;;;;;36.60;10.40;;;;;;;;;;4997347;28;20232;-88
2022/11/21 01:10:13;;;;;;;43.43;10.00;;;;;;;;;;4981250;28;20221;-88
2022/11/21 01:12:38;;;;;;;25.97;10.03;;;;;;;;;;4981583;28;20594;-89
2022/11/21 01:15:07;;;;;;;51.67;9.80;;;;;;;;;;4981804;28;20221;-89
2022/11/21 01:17:32;;;;;;;20.27;9.80;;;;;;;;;;5008302;28;20734;-91
2022/11/21 01:20:05;;;;;;;53.30;9.90;;;;;;;;;;4989748;28;20227;-88
2022/11/21 01:22:31;;;;;;;28.27;9.60;;;;;;;;;;5012388;28;20220;-89
2022/11/21 01:24:59;;;;;;;19.63;9.37;;;;;;;;;;5014840;28;20235;-89
2022/11/21 01:27:25;;;;;;;19.40;8.03;;;;;;;;;;4951590;28;20229;-89
2022/11/21 01:29:51;;;;;;;23.50;9.17;;;;;;;;;;5021867;28;20292;-93
2022/11/21 01:32:19;;;;;;;25.37;9.70;;;;;;;;;;4977497;28;20686;-92
2022/11/21 01:34:44;;;;;;;26.50;9.50;;;;;;;;;;4986663;28;20229;-88
2022/11/21 01:37:10;;;;;;;37.90;9.67;;;;;;;;;;4979274;28;20229;-90
2022/11/21 01:39:38;;;;;;;33.03;9.40;;;;;;;;;;4994926;28;20237;-89
2022/11/21 01:42:03;;;;;;;40.30;10.10;;;;;;;;;;4978720;28;20754;-90
2022/11/21 01:44:47;;;;;;;45.97;8.70;;;;;;;;;;4979069;28;20229;-89
2022/11/21 01:47:12;;;;;;;16.53;8.73;;;;;;;;;;4993797;28;20271;-88
2022/11/21 01:49:38;;;;;;;21.43;9.90;;;;;;;;;;5011888;28;20229;-88
2022/11/21 01:52:06;;;;;;;13.43;8.97;;;;;;;;;;4961934;28;20596;-89
2022/11/21 01:54:39;;;;;;;12.20;9.70;;;;;;;;;;4988430;28;20764;-89
2022/11/21 01:57:20;;;;;;;11.37;10.27;;;;;;;;;;4977817;28;20251;-90
2022/11/21 02:00:03;;;;;;;10.70;9.63;;;;;;;;;;4986481;28;20264;-91
2022/11/21 02:02:36;;;;;;;11.37;9.90;;;;;;;;;;4992940;28;20633;-89
2022/11/21 02:05:03;;;;;;;11.47;10.30;;;;;;;;;;4960414;28;20237;-89
2022/11/21 02:07:31;;;;;;;10.63;9.53;;;;;;;;;;4959830;28;20260;-88
2022/11/21 02:10:01;;;;;;;9.83;8.93;;;;;;;;;;4976016;28;20718;-90
2022/11/21 02:12:44;;;;;;;10.17;9.27;;;;;;;;;;4959580;28;20316;-91
2022/11/21 02:15:12;;;;;;;9.40;8.40;;;;;;;;;;4960268;28;20236;-90
2022/11/21 02:17:43;;;;;;;10.07;9.07;;;;;;;;;;4996240;28;20746;-89
2022/11/21 02:20:10;;;;;;;9.37;8.47;;;;;;;;;;4975826;28;20287;-90
2022/11/21 02:23:05;;;;;;;9.93;8.93;;;;;;;;;;4962997;28;20295;-89
2022/11/21 02:25:37;;;;;;;10.30;8.63;;;;;;;;;;4996755;28;20240;-89
2022/11/21 02:28:05;;;;;;;13.33;9.97;;;;;;;;;;4970158;28;20220;-89
2022/11/21 02:30:31;;;;;;;11.03;9.93;;;;;;;;;;4984965;28;20237;-89
2022/11/21 02:33:06;;;;;;;13.13;10.90;;;;;;;;;;4984806;28;20209;-89
2022/11/21 02:35:34;;;;;;;11.73;10.53;;;;;;;;;;4983887;28;20220;-89
2022/11/21 02:38:05;;;;;;;14.40;10.90;;;;;;;;;;4966611;28;20231;-89
2022/11/21 02:40:40;;;;;;;11.77;10.57;;;;;;;;;;4965802;28;20229;-89
2022/11/21 02:43:22;;;;;;;12.57;10.70;;;;;;;;;;4966871;28;20220;-88
2022/11/21 02:45:49;;;;;;;12.20;10.77;;;;;;;;;;4980967;28;20323;-88
2022/11/21 02:48:15;;;;;;;11.67;10.47;;;;;;;;;;4964433;28;20221;-88
2022/11/21 02:50:42;;;;;;;13.20;11.40;;;;;;;;;;4964689;28;20274;-89
2022/11/21 02:53:12;;;;;;;11.87;10.67;;;;;;;;;;4963839;28;20239;-88
2022/11/21 02:55:42;;;;;;;13.10;11.70;;;;;;;;;;4965690;28;20225;-89
2022/11/21 02:58:11;;;;;;;14.90;11.60;;;;;;;;;;4964252;28;20266;-88
2022/11/21 03:00:39;;;;;;;15.43;12.63;;;;;;;;;;4964400;28;20231;-89
2022/11/21 03:03:07;;;;;;;15.73;12.53;;;;;;;;;;4948971;28;20307;-88
2022/11/21 03:05:33;;;;;;;13.70;12.23;;;;;;;;;;4964092;28;20237;-89
2022/11/21 03:08:01;;;;;;;16.20;13.17;;;;;;;;;;4964331;28;20237;-89
2022/11/21 03:10:29;;;;;;;15.83;12.73;;;;;;;;;;4948377;28;20250;-88
2022/11/21 03:13:02;;;;;;;16.20;13.73;;;;;;;;;;4968300;28;20272;-88
2022/11/21 03:15:29;;;;;;;16.37;12.70;;;;;;;;;;4952866;28;20229;-88
2022/11/21 03:17:54;;;;;;;26.00;12.53;;;;;;;;;;4968784;28;20224;-88
2022/11/21 03:20:20;;;;;;;24.20;13.33;;;;;;;;;;4967257;28;20590;-88
2022/11/21 03:22:49;;;;;;;32.67;13.83;;;;;;;;;;4968648;28;20748;-89
2022/11/21 03:25:14;;;;;;;31.43;13.73;;;;;;;;;;4967161;28;20237;-89
2022/11/21 03:27:42;;;;;;;18.73;12.33;;;;;;;;;;4967763;28;20279;-89
2022/11/21 03:30:11;;;;;;;20.23;13.67;;;;;;;;;;4952691;28;20244;-89
2022/11/21 03:32:36;;;;;;;22.60;13.83;;;;;;;;;;4967872;28;20220;-89
2022/11/21 03:35:04;;;;;;;28.67;13.13;;;;;;;;;;4968119;28;20237;-89
2022/11/21 03:37:30;;;;;;;28.53;13.53;;;;;;;;;;4983383;28;20733;-89
2022/11/21 03:39:55;;;;;;;33.37;13.63;;;;;;;;;;4968407;28;20225;-89
2022/11/21 03:42:23;;;;;;;31.57;13.80;;;;;;;;;;4985498;28;20217;-89
2022/11/21 03:44:49;;;;;;;18.30;12.80;;;;;;;;;;4969756;28;20283;-89
2022/11/21 03:47:14;;;;;;;25.30;13.40;;;;;;;;;;4982342;28;20232;-89
2022/11/21 03:49:42;;;;;;;30.53;13.43;;;;;;;;;;4967772;28;20225;-89
2022/11/21 03:52:07;;;;;;;22.50;13.47;;;;;;;;;;4970023;28;20232;-89
2022/11/21 03:54:35;;;;;;;32.97;13.97;;;;;;;;;;4968727;28;20216;-89
2022/11/21 03:57:03;;;;;;;42.47;13.70;;;;;;;;;;4951936;28;20290;-88
2022/11/21 03:59:31;;;;;;;24.90;12.33;;;;;;;;;;4970810;28;20221;-89
2022/11/21 04:01:57;;;;;;;33.13;12.97;;;;;;;;;;4974929;28;20216;-92
2022/11/21 04:04:22;;;;;;;15.90;12.83;;;;;;;;;;4989104;28;20236;-90
2022/11/21 04:06:50;;;;;;;22.70;14.10;;;;;;;;;;4988305;28;20296;-90
2022/11/21 04:09:18;;;;;;;32.40;14.10;;;;;;;;;;4977605;28;20228;-89
2022/11/21 04:11:43;;;;;;;45.70;12.47;;;;;;;;;;4981085;28;20177;-89
2022/11/21 04:14:12;;;;;;;22.33;13.87;;;;;;;;;;4976838;28;20226;-89
2022/11/21 04:16:38;;;;;;;38.57;12.60;;;;;;;;;;4956855;28;20213;-89
2022/11/21 04:19:03;;;;;;;18.00;12.03;;;;;;;;;;4972506;28;20235;-89
2022/11/21 04:21:29;;;;;;;23.10;13.70;;;;;;;;;;4973448;28;20228;-89
2022/11/21 04:23:55;;;;;;;34.20;13.33;;;;;;;;;;4972630;28;20744;-88
2022/11/21 04:26:20;;;;;;;28.73;13.40;;;;;;;;;;4984116;28;20217;-87
2022/11/21 04:28:46;;;;;;;29.30;13.17;;;;;;;;;;4985317;28;20212;-90
2022/11/21 04:31:12;;;;;;;52.63;13.33;;;;;;;;;;4967920;28;20228;-90
2022/11/21 04:33:38;;;;;;;41.47;14.77;;;;;;;;;;5001057;28;20233;-87
2022/11/21 04:36:04;;;;;;;50.03;23.43;;;;;;;;;;4985067;28;20227;-90
2022/11/21 04:38:36;;;;;;;22.23;13.77;;;;;;;;;;4969500;28;20193;-90
2022/11/21 04:41:01;;;;;;;26.50;13.20;;;;;;;;;;4968816;28;20252;-91
2022/11/21 04:43:27;;;;;;;27.53;13.23;;;;;;;;;;4982333;28;21021;-92
2022/11/21 04:45:55;;;;;;;50.60;12.07;;;;;;;;;;4983965;28;20225;-91
2022/11/21 04:48:21;;;;;;;30.60;11.97;;;;;;;;;;4992393;28;20752;-89
2022/11/21 04:50:47;;;;;;;24.57;11.70;;;;;;;;;;4978833;28;20226;-90
2022/11/21 04:53:12;;;;;;;24.83;12.63;;;;;;;;;;4977164;28;20225;-89
2022/11/21 04:55:38;;;;;;;32.07;11.73;;;;;;;;;;4986978;28;20213;-89
2022/11/21 04:58:04;;;;;;;34.10;12.83;;;;;;;;;;4985252;28;20208;-90
2022/11/21 05:00:32;;;;;;;63.07;14.53;;;;;;;;;;4986750;28;20280;-89
2022/11/21 05:03:04;;;;;;;39.17;13.03;;;;;;;;;;4972497;28;20821;-90
2022/11/21 05:05:29;;;;;;;31.17;12.43;;;;;;;;;;4965920;28;20315;-89
2022/11/21 05:07:55;;;;;;;37.57;12.87;;;;;;;;;;4965111;28;20235;-89
2022/11/21 05:10:21;;;;;;;27.87;13.77;;;;;;;;;;4965361;28;20220;-90
2022/11/21 05:15:30;;;;;;;30.30;13.97;;;;;;;;;;4973758;28;20229;-90
2022/11/21 05:17:58;;;;;;;25.37;13.07;;;;;;;;;;4971436;28;20203;-89
2022/11/21 05:20:24;;;;;;;40.53;12.60;;;;;;;;;;4964004;28;20224;-91
2022/11/21 05:22:50;;;;;;;38.87;12.80;;;;;;;;;;4963929;28;20701;-90
2022/11/21 05:25:16;;;;;;;36.50;12.93;;;;;;;;;;4984380;28;20227;-91
2022/11/21 05:27:48;;;;;;;47.40;12.17;;;;;;;;;;4981080;28;20652;-89
2022/11/21 05:30:14;;;;;;;36.10;12.83;;;;;;;;;;4962713;28;20597;-92
2022/11/21 05:32:42;;;;;;;42.03;12.70;;;;;;;;;;4965357;28;20668;-94
2022/11/21 05:35:08;;;;;;;32.30;12.73;;;;;;;;;;4978209;28;20221;-90
2022/11/21 05:37:34;;;;;;;27.80;12.50;;;;;;;;;;4981928;28;20228;-91
2022/11/21 05:39:59;;;;;;;46.70;11.37;;;;;;;;;;4966172;28;20223;-91
2022/11/21 05:45:09;;;;;;;37.33;11.67;;;;;;;;;;4985049;28;20258;-89
2022/11/21 05:47:36;;;;;;;39.13;11.63;;;;;;;;;;4964207;28;20235;-90
2022/11/21 05:50:03;;;;;;;52.33;12.63;;;;;;;;;;4955899;28;20216;-89
2022/11/21 05:52:29;;;;;;;95.87;12.80;;;;;;;;;;4966262;28;20304;-88
2022/11/21 05:54:55;;;;;;;59.87;11.60;;;;;;;;;;4984434;28;20241;-89
2022/11/21 05:57:20;;;;;;;58.40;20.33;;;;;;;;;;4983921;28;20228;-88
2022/11/21 05:59:46;;;;;;;45.47;14.53;;;;;;;;;;4979838;28;20808;-87
2022/11/21 06:04:58;;;;;;;37.53;12.27;;;;;;;;;;4995978;28;20221;-89
2022/11/21 06:07:23;;;;;;;33.60;13.10;;;;;;;;;;4965521;28;20244;-90
2022/11/21 06:09:49;;;;;;;34.13;15.27;;;;;;;;;;4962447;28;20259;-89
2022/11/21 06:12:14;;;;;;;80.37;22.23;;;;;;;;;;4972652;28;20595;-90
2022/11/21 06:14:44;;;;;;;47.33;22.00;;;;;;;;;;4962230;28;20228;-90
2022/11/21 06:17:10;;;;;;;48.00;15.37;;;;;;;;;;4979682;28;20239;-90
2022/11/21 06:19:36;;;;;;;47.03;12.27;;;;;;;;;;4964044;28;20224;-89
2022/11/21 06:22:02;;;;;;;55.23;12.03;;;;;;;;;;4964478;28;20249;-90
2022/11/21 06:24:30;;;;;;;48.50;12.43;;;;;;;;;;4972088;28;20229;-89
2022/11/21 06:26:58;;;;;;;33.93;13.60;;;;;;;;;;4981269;28;20572;-89
2022/11/21 06:29:26;;;;;;;39.43;13.70;;;;;;;;;;4966101;28;20219;-89
2022/11/21 06:31:54;;;;;;;18.43;12.80;;;;;;;;;;4976676;28;20230;-90
2022/11/21 06:34:20;;;;;;;61.23;12.67;;;;;;;;;;4973050;28;20219;-90
2022/11/21 06:36:50;;;;;;;49.33;13.17;;;;;;;;;;4976591;28;20224;-89
2022/11/21 06:39:18;;;;;;;13.20;11.77;;;;;;;;;;4983150;28;20220;-89
2022/11/21 06:41:51;;;;;;;21.17;12.10;;;;;;;;;;4966459;28;20216;-90
2022/11/21 06:44:17;;;;;;;22.27;13.70;;;;;;;;;;4966970;28;20212;-87
2022/11/21 06:46:43;;;;;;;23.27;13.90;;;;;;;;;;4962889;28;20221;-87
2022/11/21 06:49:09;;;;;;;38.47;14.43;;;;;;;;;;4994593;28;20285;-88
2022/11/21 06:51:34;;;;;;;25.00;14.33;;;;;;;;;;4972895;28;20231;-88
2022/11/21 06:54:00;;;;;;;19.10;13.63;;;;;;;;;;5000225;28;20217;-87
2022/11/21 06:56:27;;;;;;;24.47;12.87;;;;;;;;;;4973825;28;20221;-87
2022/11/21 06:58:55;;;;;;;17.83;13.03;;;;;;;;;;4983510;28;20227;-87
2022/11/21 07:01:26;;;;;;;21.33;13.50;;;;;;;;;;4986275;28;20220;-88
2022/11/21 07:03:54;;;;;;;20.00;14.07;;;;;;;;;;4997198;28;20254;-87
2022/11/21 07:06:20;;;;;;;16.47;14.43;;;;;;;;;;4985207;28;20902;-87
2022/11/21 07:08:46;;;;;;;24.83;14.70;;;;;;;;;;4968571;28;20300;-87
2022/11/21 07:11:15;;;;;;;28.07;15.47;;;;;;;;;;4983559;28;20217;-87
2022/11/21 07:13:43;;;;;;;17.20;13.57;;;;;;;;;;4986062;28;20222;-88
2022/11/21 07:16:15;;;;;;;34.87;14.80;;;;;;;;;;4986294;23;20300;-75
2022/11/21 07:18:45;;;;;;;16.70;13.87;;;;;;;;;;5012084;28;20240;-76
2022/11/21 07:21:16;;;;;;;34.03;13.47;;;;;;;;;;4994369;28;20227;-75
2022/11/21 07:23:44;;;;;;;18.80;14.23;;;;;;;;;;4962640;28;20233;-76
2022/11/21 07:26:13;;;;;;;26.83;15.07;;;;;;;;;;4959796;28;20278;-75
2022/11/21 07:28:38;;;;;;;16.63;13.77;;;;;;;;;;4970394;28;20236;-75
2022/11/21 07:31:07;;;;;;;20.40;14.13;;;;;;;;;;4974364;28;20221;-76
2022/11/21 07:33:33;;;;;;;33.23;14.47;;;;;;;;;;4963785;28;20227;-74
2022/11/21 07:36:01;;;;;;;23.90;14.03;;;;;;;;;;4977789;28;20225;-74
2022/11/21 07:38:28;;;;;;;20.60;13.43;;;;;;;;;;4991365;28;20248;-77
2022/11/21 07:40:57;;;;;;;16.40;14.70;;;;;;;;;;4987821;28;20229;-77
2022/11/21 07:43:23;;;;;;;18.13;13.67;;;;;;;;;;4966280;28;20249;-77
2022/11/21 07:45:51;;;;;;;20.27;15.17;;;;;;;;;;4961476;28;20233;-78
2022/11/21 07:48:16;;;;;;;24.50;15.40;;;;;;;;;;4989212;28;20672;-77
2022/11/21 07:50:45;;;;;;;28.80;14.50;;;;;;;;;;4992623;28;20703;-78
2022/11/21 07:53:13;;;;;;;29.43;15.00;;;;;;;;;;4970209;28;20283;-78
2022/11/21 07:55:41;;;;;;;29.10;16.37;;;;;;;;;;4973366;28;20320;-79
2022/11/21 07:58:09;;;;;;;31.03;15.93;;;;;;;;;;4979016;28;20761;-78
2022/11/21 08:00:35;;;;;;;36.10;15.83;;;;;;;;;;4990500;28;20242;-79
2022/11/21 08:03:02;;;;;;;26.30;17.63;;;;;;;;;;5009491;28;20222;-79
2022/11/21 08:05:28;;;;;;;27.57;16.30;;;;;;;;;;5005728;28;20233;-77
2022/11/21 08:07:56;;;;;;;20.83;15.47;;;;;;;;;;4987636;28;20257;-76
2022/11/21 08:10:22;;;;;;;22.13;16.67;;;;;;;;;;4965619;28;20226;-77
2022/11/21 08:12:48;;;;;;;23.53;15.90;;;;;;;;;;4971814;28;20226;-77
2022/11/21 08:15:16;;;;;;;26.80;15.87;;;;;;;;;;4961286;28;20237;-78
2022/11/21 08:17:43;;;;;;;23.27;17.93;;;;;;;;;;4976728;28;20225;-77
2022/11/21 08:20:11;;;;;;;22.77;17.20;;;;;;;;;;4976567;28;20332;-77
2022/11/21 08:22:40;;;;;;;24.00;16.10;;;;;;;;;;4992456;28;20747;-79
2022/11/21 08:25:06;;;;;;;19.60;15.23;;;;;;;;;;5015197;23;20229;-86
2022/11/21 08:27:32;;;;;;;25.87;16.57;;;;;;;;;;4964561;28;20230;-86
2022/11/21 08:30:00;;;;;;;21.60;15.13;;;;;;;;;;4941742;28;20272;-87
2022/11/21 08:32:28;;;;;;;26.23;16.50;;;;;;;;;;4949240;28;20395;-86
2022/11/21 08:34:58;;;;;;;27.17;16.13;;;;;;;;;;4960427;28;20225;-87
2022/11/21 08:37:29;;;;;;;18.90;15.23;;;;;;;;;;4945295;28;20222;-87
2022/11/21 08:40:02;;;;;;;23.57;16.90;;;;;;;;;;4952880;28;20227;-87
2022/11/21 08:42:28;;;;;;;19.47;15.47;;;;;;;;;;4930435;28;21286;-85
2022/11/21 08:44:53;;;;;;;25.43;16.37;;;;;;;;;;4965820;28;20249;-87
2022/11/21 08:47:19;;;;;;;26.27;15.73;;;;;;;;;;4968540;28;20229;-87
2022/11/21 08:49:47;;;;;;;23.90;15.13;;;;;;;;;;4988429;28;20655;-87
2022/11/21 08:52:13;;;;;;;34.67;17.73;;;;;;;;;;4964375;28;20241;-86
2022/11/21 08:54:39;;;;;;;29.67;19.80;;;;;;;;;;4947676;28;20237;-88
2022/11/21 08:57:04;;;;;;;19.33;16.53;;;;;;;;;;4955044;28;20228;-87
2022/11/21 08:59:30;;;;;;;22.93;18.20;;;;;;;;;;4950996;28;20226;-86
2022/11/21 09:02:02;;;;;;;21.83;17.50;;;;;;;;;;4954174;28;20229;-87
2022/11/21 09:04:32;;;;;;;23.97;17.70;;;;;;;;;;4953739;28;20230;-87
2022/11/21 09:06:58;;;;;;;31.73;19.90;;;;;;;;;;4962686;28;20252;-86
2022/11/21 09:09:26;;;;;;;44.40;24.67;;;;;;;;;;4950923;28;20225;-86
2022/11/21 09:11:54;;;;;;;70.10;29.87;;;;;;;;;;4946540;28;20235;-87
2022/11/21 09:19:48;;;;;;;23.07;18.00;;;;;;;;;;4963888;28;20225;-87
2022/11/21 09:22:16;;;;;;;22.37;16.70;;;;;;;;;;4945520;28;20304;-86
2022/11/21 09:24:47;;;;;;;18.37;15.83;;;;;;;;;;4954660;28;20221;-86
2022/11/21 09:27:12;;;;;;;19.33;16.53;;;;;;;;;;4942507;28;20231;-86
2022/11/21 09:29:38;;;;;;;19.40;15.80;;;;;;;;;;4952944;28;20237;-86
2022/11/21 09:32:04;;;;;;;18.23;16.33;;;;;;;;;;4960150;28;21065;-85
2022/11/21 09:34:32;;;;;;;18.27;16.33;;;;;;;;;;4945577;28;20566;-85
2022/11/21 09:36:57;;;;;;;20.70;17.27;;;;;;;;;;4958286;28;20229;-85
2022/11/21 09:39:25;;;;;;;19.93;16.57;;;;;;;;;;4958392;28;20228;-86
2022/11/21 09:41:58;;;;;;;17.07;15.20;;;;;;;;;;4960212;28;20752;-86
2022/11/21 09:47:31;;;;;;;16.30;14.57;;;;;;;;;;4957765;28;20230;-78
2022/11/21 09:50:22;;;;;;;15.00;13.43;;;;;;;;;;4966037;28;20227;-78
2022/11/21 09:53:08;;;;;;;15.53;13.90;;;;;;;;;;4929014;28;20276;-77
2022/11/21 09:55:34;;;;;;;17.67;13.87;;;;;;;;;;4943352;28;20222;-77
2022/11/21 09:58:05;;;;;;;18.10;14.50;;;;;;;;;;4962003;28;20230;-80
2022/11/21 10:00:33;;;;;;;18.73;16.17;;;;;;;;;;4932667;28;20226;-80
2022/11/21 10:03:01;;;;;;;44.80;29.33;;;;;;;;;;4923871;28;20230;-80
2022/11/21 10:05:55;;;;;;;45.43;27.30;;;;;;;;;;4963770;28;20242;-79
2022/11/21 10:08:47;;;;;;;56.03;31.27;;;;;;;;;;4947368;28;20276;-80
2022/11/21 10:12:35;;;;;;;62.30;33.23;;;;;;;;;;4968439;28;20237;-80
2022/11/21 10:14:30;;;;;;;47.07;28.10;;;;;;;;;;4946597;28;20254;-76
2022/11/21 10:17:09;;;;;;;45.97;28.73;;;;;;;;;;4943756;28;20278;-74
2022/11/21 10:19:56;;;;;;;74.53;39.20;;;;;;;;;;4955852;28;20226;-74
2022/11/21 10:22:41;;;;;;;18.17;16.27;;;;;;;;;;4938716;28;20230;-76
2022/11/21 10:25:24;;;;;;;15.50;13.83;;;;;;;;;;4956503;28;20264;-76
2022/11/21 10:27:57;;;;;;;14.67;13.20;;;;;;;;;;4933989;28;20238;-77
2022/11/21 10:30:23;;;;;;;15.27;13.40;;;;;;;;;;4957245;28;20246;-77
2022/11/21 10:33:03;;;;;;;14.87;13.30;;;;;;;;;;4938553;28;20234;-75
2022/11/21 10:35:46;;;;;;;14.10;12.70;;;;;;;;;;4942366;28;20226;-76
2022/11/21 10:38:35;;;;;;;14.23;12.33;;;;;;;;;;4923971;28;20292;-77
2022/11/21 10:41:01;;;;;;;14.37;12.87;;;;;;;;;;4941979;28;20313;-77
2022/11/21 10:46:57;;;;;;;12.73;11.53;;;;;;;;;;4925103;28;20235;-76
2022/11/21 10:49:24;;;;;;;14.23;12.73;;;;;;;;;;4938372;28;20227;-76
2022/11/21 10:51:52;;;;;;;20.07;16.47;;;;;;;;;;4924906;28;20226;-76
2022/11/21 10:54:34;;;;;;;19.53;16.73;;;;;;;;;;4928038;28;20242;-76
2022/11/21 10:57:11;;;;;;;40.00;32.43;;;;;;;;;;4943458;28;20288;-76
2022/11/21 10:59:36;;;;;;;15.20;12.30;;;;;;;;;;4941925;28;20222;-76
2022/11/21 11:02:22;;;;;;;11.77;10.57;;;;;;;;;;4940177;28;20229;-76
2022/11/21 11:05:16;;;;;;;11.17;10.07;;;;;;;;;;4942759;28;20386;-76
2022/11/21 11:07:42;;;;;;;10.83;9.73;;;;;;;;;;4936624;28;20235;-76
2022/11/21 11:10:20;;;;;;;11.73;9.70;;;;;;;;;;4923834;28;20234;-76
2022/11/21 11:15:34;;;;;;;11.93;10.73;;;;;;;;;;4956106;28;20227;-78
2022/11/21 11:18:02;;;;;;;11.10;10.00;;;;;;;;;;4960319;28;20237;-77
2022/11/21 11:20:40;;;;;;;8.70;7.90;;;;;;;;;;4938540;28;20222;-75
2022/11/21 11:23:29;;;;;;;8.17;7.43;;;;;;;;;;4942999;28;20688;-78
2022/11/21 11:26:01;;;;;;;8.63;7.83;;;;;;;;;;4959365;28;20298;-78
2022/11/21 11:28:37;;;;;;;7.90;7.10;;;;;;;;;;4910170;28;20704;-74
2022/11/21 11:31:05;;;;;;;8.13;7.33;;;;;;;;;;4924872;28;20245;-77
2022/11/21 11:34:00;;;;;;;7.60;6.90;;;;;;;;;;4942077;28;20262;-77
2022/11/21 11:36:44;;;;;;;6.20;5.70;;;;;;;;;;4921725;28;20226;-77
2022/11/21 11:39:30;;;;;;;6.50;5.90;;;;;;;;;;4941595;28;20632;-77
2022/11/21 11:48:18;;;;;;;6.03;5.50;;;;;;;;;;4963762;28;20230;-77
2022/11/21 11:50:53;;;;;;;8.30;6.20;;;;;;;;;;4925869;28;20297;-77
2022/11/21 11:53:31;;;;;;;7.33;5.33;;;;;;;;;;4932436;28;20254;-77
2022/11/21 11:56:01;;;;;;;9.20;7.80;;;;;;;;;;4944950;28;20218;-78
2022/11/21 11:58:58;;;;;;;5.90;5.30;;;;;;;;;;4926563;28;20218;-77
2022/11/21 12:01:26;;;;;;;6.30;5.37;;;;;;;;;;4942564;28;20230;-77
2022/11/21 12:04:01;;;;;;;6.70;6.10;;;;;;;;;;4946033;28;21189;-76
2022/11/21 12:06:52;;;;;;;5.67;5.17;;;;;;;;;;4939744;28;20233;-77
2022/11/21 12:09:49;;;;;;;6.33;5.73;;;;;;;;;;4934751;28;20292;-77
2022/11/21 12:12:30;;;;;;;5.83;5.23;;;;;;;;;;4929392;28;20344;-77
2022/11/21 12:18:19;;;;;;;4.63;4.17;;;;;;;;;;4962468;28;20226;-77
2022/11/21 12:21:20;;;;;;;4.53;4.13;;;;;;;;;;4961478;28;20237;-77
2022/11/21 12:23:52;;;;;;;4.43;4.13;;;;;;;;;;4911670;28;20222;-77
2022/11/21 12:26:42;;;;;;;4.87;4.47;;;;;;;;;;4929444;28;20241;-76
2022/11/21 12:29:35;;;;;;;4.97;4.17;;;;;;;;;;4958096;28;20227;-76
2022/11/21 12:32:24;;;;;;;4.63;4.00;;;;;;;;;;4954567;28;20231;-76
2022/11/21 12:35:02;;;;;;;4.37;3.97;;;;;;;;;;4959567;28;20243;-77
2022/11/21 12:37:50;;;;;;;4.43;4.03;;;;;;;;;;4962958;28;20229;-78
2022/11/21 12:40:21;;;;;;;4.63;4.23;;;;;;;;;;4951422;28;20230;-77
2022/11/21 12:43:16;;;;;;;4.60;4.17;;;;;;;;;;4960486;28;20227;-77
2022/11/21 12:46:06;;;;;;;4.87;4.40;;;;;;;;;;4916060;28;20293;-77
2022/11/21 12:54:29;;;;;;;6.77;5.70;;;;;;;;;;4958152;28;20233;-76
2022/11/21 12:55:04;;;;;;;6.47;5.90;;;;;;;;;;4952109;28;20222;-77
2022/11/21 12:58:04;;;;;;;6.90;6.30;;;;;;;;;;4954948;28;20281;-76
2022/11/21 13:01:04;;;;;;;7.03;6.40;;;;;;;;;;4943082;28;20268;-77
2022/11/21 13:03:52;;;;;;;6.80;6.20;;;;;;;;;;4946030;28;20222;-77
2022/11/21 13:06:26;;;;;;;7.33;6.73;;;;;;;;;;4918524;28;20229;-76
2022/11/21 13:08:52;;;;;;;8.33;7.40;;;;;;;;;;4945023;28;20226;-76
2022/11/21 13:14:32;;;;;;;7.77;7.07;;;;;;;;;;4944217;28;20226;-77
2022/11/21 13:17:20;;;;;;;8.33;7.57;;;;;;;;;;4961284;28;20769;-77
2022/11/21 13:20:09;;;;;;;7.73;7.00;;;;;;;;;;4941555;28;20231;-76
2022/11/21 13:22:40;;;;;;;7.73;7.03;;;;;;;;;;4958526;28;20245;-76
2022/11/21 13:25:12;;;;;;;7.97;7.27;;;;;;;;;;4959228;28;20227;-76
2022/11/21 13:27:43;;;;;;;8.90;8.13;;;;;;;;;;4943515;28;20230;-75
2022/11/21 13:30:15;;;;;;;8.63;7.73;;;;;;;;;;4930155;28;20226;-78
2022/11/21 13:32:46;;;;;;;7.90;7.00;;;;;;;;;;4955247;28;20226;-77
2022/11/21 13:35:18;;;;;;;8.37;7.63;;;;;;;;;;4959681;28;20214;-76
2022/11/21 13:38:05;;;;;;;8.93;8.13;;;;;;;;;;4958486;28;20230;-79
2022/11/21 13:40:38;;;;;;;8.20;7.50;;;;;;;;;;4924734;28;20229;-78
2022/11/21 13:43:08;;;;;;;9.53;8.40;;;;;;;;;;4958128;28;20234;-77
2022/11/21 13:45:42;;;;;;;13.00;8.00;;;;;;;;;;4941520;28;20230;-77
2022/11/21 13:48:20;;;;;;;9.83;8.83;;;;;;;;;;4943505;28;20237;-77
2022/11/21 13:50:57;;;;;;;11.33;9.53;;;;;;;;;;4943228;28;20223;-77
2022/11/21 13:54:00;;;;;;;11.27;9.90;;;;;;;;;;4958078;28;20254;-77
2022/11/21 13:56:36;;;;;;;10.87;9.97;;;;;;;;;;4957781;28;20222;-76
2022/11/21 13:59:01;;;;;;;11.17;10.17;;;;;;;;;;4961362;28;20222;-77
2022/11/21 14:02:00;;;;;;;11.97;10.77;;;;;;;;;;4959406;28;20226;-79
2022/11/21 14:04:52;;;;;;;12.30;11.10;;;;;;;;;;4942102;28;20242;-77
2022/11/21 14:07:31;;;;;;;11.83;10.73;;;;;;;;;;4956523;28;20242;-77
2022/11/21 14:09:59;;;;;;;12.50;11.23;;;;;;;;;;4942619;28;20276;-75
2022/11/21 14:12:35;;;;;;;12.63;11.43;;;;;;;;;;4925735;28;20306;-77
2022/11/21 14:15:00;;;;;;;13.07;11.77;;;;;;;;;;4911555;28;20226;-80
2022/11/21 14:17:47;;;;;;;13.13;11.90;;;;;;;;;;4961050;28;20322;-78
2022/11/21 14:20:26;;;;;;;13.43;12.13;;;;;;;;;;4927392;28;20233;-77
2022/11/21 14:23:18;;;;;;;13.83;12.43;;;;;;;;;;4941346;28;20249;-78
2022/11/21 14:25:52;;;;;;;13.50;12.20;;;;;;;;;;4942610;28;20620;-78
2022/11/21 14:28:25;;;;;;;14.80;13.23;;;;;;;;;;4945801;28;20615;-78
2022/11/21 14:30:58;;;;;;;15.63;13.93;;;;;;;;;;4944244;28;20238;-77
2022/11/21 14:33:24;;;;;;;15.20;13.67;;;;;;;;;;4943214;28;20286;-78
2022/11/21 14:35:59;;;;;;;15.43;13.83;;;;;;;;;;4948156;28;20285;-77
2022/11/21 14:38:26;;;;;;;15.63;14.10;;;;;;;;;;4942258;28;20225;-78
2022/11/21 14:41:33;;;;;;;17.07;14.23;;;;;;;;;;4947985;28;20234;-78
2022/11/21 14:44:00;;;;;;;16.40;14.53;;;;;;;;;;4940794;28;20231;-79
2022/11/21 14:46:29;;;;;;;15.93;14.27;;;;;;;;;;4944244;28;20223;-78
2022/11/21 14:48:56;;;;;;;16.60;14.77;;;;;;;;;;4928298;28;20278;-78
2022/11/21 14:51:24;;;;;;;17.53;15.70;;;;;;;;;;4942641;28;20234;-79
2022/11/21 14:53:51;;;;;;;16.30;14.60;;;;;;;;;;4915221;28;20226;-79
2022/11/21 14:56:29;;;;;;;15.93;14.23;;;;;;;;;;4934704;28;20222;-79
2022/11/21 14:58:56;;;;;;;15.50;13.83;;;;;;;;;;4933006;28;20230;-79
2022/11/21 15:01:32;;;;;;;15.90;14.13;;;;;;;;;;4934002;28;20215;-78
2022/11/21 15:04:05;;;;;;;15.50;13.83;;;;;;;;;;4918933;28;20223;-78
2022/11/21 15:06:41;;;;;;;16.90;15.10;;;;;;;;;;4918831;28;20253;-79
2022/11/21 15:09:15;;;;;;;17.80;15.13;;;;;;;;;;4934026;28;20357;-78
2022/11/21 15:11:47;;;;;;;15.60;13.93;;;;;;;;;;4946283;28;20227;-78
2022/11/21 15:14:34;;;;;;;16.10;13.97;;;;;;;;;;4962685;28;20225;-79
2022/11/21 15:16:59;;;;;;;14.93;13.43;;;;;;;;;;4934825;28;20233;-78
2022/11/21 15:19:26;;;;;;;17.40;14.20;;;;;;;;;;4949568;28;20317;-79
2022/11/21 15:21:59;;;;;;;16.53;14.57;;;;;;;;;;4937276;28;20245;-78
2022/11/21 15:24:41;;;;;;;17.03;15.03;;;;;;;;;;4919113;28;20224;-79
2022/11/21 15:27:43;;;;;;;15.13;13.53;;;;;;;;;;4958553;28;20709;-79